createdAt,value
2023-01-13T00:00:15.244Z,100895.66
2023-01-13T00:02:49.811Z,100897.25
2023-01-13T00:05:25.907Z,100899.16
2023-01-13T00:08:00.954Z,100908.06
2023-01-13T00:10:35.802Z,100901.87
2023-01-13T00:13:10.773Z,100897.59
2023-01-13T00:15:45.001Z,100904.19
2023-01-13T00:18:19.557Z,100901.87
2023-01-13T00:21:01.724Z,100904.19
2023-01-13T00:23:37.057Z,100904.56
2023-01-13T00:26:13.192Z,100904.19
2023-01-13T00:28:47.733Z,100899.53
2023-01-13T00:31:22.536Z,100897.22
2023-01-13T00:33:58.478Z,100891.37
2023-01-13T00:36:34.056Z,100898.75
2023-01-13T00:39:08.974Z,100887.13
2023-01-13T00:42:00.776Z,100885.50
2023-01-13T00:44:35.271Z,100882.62
2023-01-13T00:47:09.406Z,100873.88
2023-01-13T00:49:44.010Z,100887.09
2023-01-13T00:52:19.720Z,100887.13
2023-01-13T00:54:54.395Z,100884.00
2023-01-13T00:57:28.655Z,100888.66
2023-01-13T01:00:03.719Z,100892.56
2023-01-13T01:02:38.168Z,100892.94
2023-01-13T01:05:12.810Z,100888.72
2023-01-13T01:07:48.488Z,100883.25
2023-01-13T01:10:23.999Z,100893.72
2023-01-13T01:12:58.328Z,100889.47
2023-01-13T01:15:32.924Z,100890.63
2023-01-13T01:18:07.193Z,100880.53
2023-01-13T01:20:41.792Z,100879.75
2023-01-13T01:23:17.562Z,100873.16
2023-01-13T01:25:52.154Z,100858.41
2023-01-13T01:28:26.388Z,100849.09
2023-01-13T01:31:02.128Z,100840.16
2023-01-13T01:33:36.784Z,100837.44
2023-01-13T01:36:13.591Z,100836.63
2023-01-13T01:38:49.774Z,100843.63
2023-01-13T01:41:26.867Z,100824.25
2023-01-13T01:44:07.144Z,100833.16
2023-01-13T01:46:43.830Z,100823.47
2023-01-13T01:49:21.692Z,100823.47
2023-01-13T01:52:00.477Z,100829.69
2023-01-13T01:54:42.276Z,100825.81
2023-01-13T01:57:21.203Z,100825.75
2023-01-13T01:59:56.763Z,100819.16
2023-01-13T02:02:32.366Z,100818.38
2023-01-13T02:05:07.888Z,100807.91
2023-01-13T02:07:45.575Z,100808.69
2023-01-13T02:10:24.452Z,100797.09
2023-01-13T02:13:01.894Z,100801.72
2023-01-13T02:15:42.589Z,100801.38
2023-01-13T02:18:32.888Z,100807.97
2023-01-13T02:21:47.611Z,100806.78
2023-01-13T02:24:56.861Z,100807.94
2023-01-13T02:27:45.462Z,100801.69
2023-01-13T02:30:49.527Z,100795.84
2023-01-13T02:33:47.455Z,100804.81
2023-01-13T02:36:30.251Z,100806.00
2023-01-13T02:39:11.387Z,100798.25
2023-01-13T02:42:09.032Z,100796.28
2023-01-13T02:44:48.840Z,100797.06
2023-01-13T02:47:27.367Z,100785.81
2023-01-13T02:50:05.323Z,100786.94
2023-01-13T02:52:44.796Z,100781.91
2023-01-13T02:55:23.168Z,100778.41
2023-01-13T02:57:59.833Z,100782.69
2023-01-13T03:00:36.819Z,100779.97
2023-01-13T03:03:12.411Z,100774.09
2023-01-13T03:05:49.437Z,100780.69
2023-01-13T03:08:42.971Z,100777.59
2023-01-13T03:11:20.269Z,100777.59
2023-01-13T03:14:08.298Z,100774.12
2023-01-13T03:16:53.794Z,100763.63
2023-01-13T03:19:38.814Z,100758.19
2023-01-13T03:22:22.441Z,100762.09
2023-01-13T03:25:01.846Z,100756.69
2023-01-13T03:27:45.531Z,100755.16
2023-01-13T03:30:23.689Z,100753.22
2023-01-13T03:33:04.789Z,100752.81
2023-01-13T03:35:41.765Z,100754.00
2023-01-13T03:38:20.199Z,100747.41
2023-01-13T03:40:58.212Z,100756.31
2023-01-13T03:43:55.957Z,100759.00
2023-01-13T03:46:38.453Z,100753.59
2023-01-13T03:49:18.339Z,100756.25
2023-01-13T03:51:58.309Z,100759.00
2023-01-13T03:54:39.075Z,100760.53
2023-01-13T03:57:16.951Z,100759.75
2023-01-13T04:00:00.006Z,100759.69
2023-01-13T04:02:46.476Z,100760.47
2023-01-13T04:05:21.535Z,100756.63
2023-01-13T04:08:03.569Z,100741.09
2023-01-13T04:10:51.914Z,100752.00
2023-01-13T04:13:29.990Z,100754.31
2023-01-13T04:16:07.950Z,100751.97
2023-01-13T04:18:42.106Z,100737.19
2023-01-13T04:21:16.692Z,100751.53
2023-01-13T04:23:52.294Z,100748.34
2023-01-13T04:26:26.791Z,100753.41
2023-01-13T04:29:00.965Z,100754.94
2023-01-13T04:31:35.722Z,100756.44
2023-01-13T04:34:11.053Z,100747.12
2023-01-13T04:36:46.157Z,100761.03
2023-01-13T04:39:21.804Z,100752.50
2023-01-13T04:41:59.407Z,100761.78
2023-01-13T04:44:35.500Z,100754.09
2023-01-13T04:47:10.071Z,100754.09
2023-01-13T04:49:44.488Z,100750.97
2023-01-13T04:52:19.000Z,100748.28
2023-01-13T04:54:54.613Z,100743.19
2023-01-13T04:57:29.405Z,100748.19
2023-01-13T05:00:04.217Z,100747.34
2023-01-13T05:02:39.193Z,100748.16
2023-01-13T05:05:13.626Z,100749.31
2023-01-13T05:07:48.235Z,100753.62
2023-01-13T05:10:24.297Z,100746.66
2023-01-13T05:13:16.101Z,100732.94
2023-01-13T05:16:11.101Z,100747.88
2023-01-13T05:18:46.147Z,100758.19
2023-01-13T05:21:38.100Z,100761.38
2023-01-13T05:24:30.526Z,100755.03
2023-01-13T05:27:06.177Z,100761.47
2023-01-13T05:29:40.747Z,100772.47
2023-01-13T05:32:14.905Z,100779.78
2023-01-13T05:34:49.417Z,100774.31
2023-01-13T05:37:24.378Z,100789.37
2023-01-13T05:40:16.443Z,100786.37
2023-01-13T05:43:19.907Z,100778.72
2023-01-13T05:45:58.595Z,100778.38
2023-01-13T05:48:34.929Z,100786.72
2023-01-13T05:51:11.764Z,100772.50
2023-01-13T05:53:46.020Z,100782.34
2023-01-13T05:56:20.583Z,100791.84
2023-01-13T05:58:56.483Z,100794.97
2023-01-13T06:01:31.033Z,100789.13
2023-01-13T06:04:06.040Z,100785.09
2023-01-13T06:06:40.329Z,100788.69
2023-01-13T06:09:14.945Z,100785.63
2023-01-13T06:11:50.113Z,100779.78
2023-01-13T06:14:26.148Z,100774.00
2023-01-13T06:17:00.697Z,100781.12
2023-01-13T06:19:36.824Z,100781.12
2023-01-13T06:22:16.854Z,100757.19
2023-01-13T06:24:53.684Z,100765.06
2023-01-13T06:27:27.991Z,100777.66
2023-01-13T06:30:04.050Z,100774.25
2023-01-13T06:32:44.098Z,100769.91
2023-01-13T06:35:23.795Z,100774.66
2023-01-13T06:38:00.395Z,100773.97
2023-01-13T06:40:35.798Z,100777.56
2023-01-13T06:43:16.418Z,100778.66
2023-01-13T06:45:54.914Z,100776.34
2023-01-13T06:48:35.327Z,100785.31
2023-01-13T06:51:10.094Z,100783.41
2023-01-13T06:53:44.356Z,100769.78
2023-01-13T06:56:18.819Z,100771.00
2023-01-13T06:58:53.053Z,100774.88
2023-01-13T07:03:07.101Z,100776.06
2023-01-13T07:05:43.766Z,100779.53
2023-01-13T07:08:18.027Z,100791.25
2023-01-13T07:10:54.332Z,100780.03
2023-01-13T07:13:45.891Z,100781.91
2023-01-13T07:16:20.451Z,100781.12
2023-01-13T07:18:56.203Z,100787.41
2023-01-13T07:21:30.774Z,100790.97
2023-01-13T07:24:05.403Z,100785.87
2023-01-13T07:26:39.912Z,100788.63
2023-01-13T07:29:14.425Z,100798.31
2023-01-13T07:31:50.276Z,100789.69
2023-01-13T07:34:25.992Z,100788.84
2023-01-13T07:37:00.482Z,100801.28
2023-01-13T07:39:34.761Z,100791.38
2023-01-13T07:42:28.223Z,100779.56
2023-01-13T07:45:02.668Z,100792.75
2023-01-13T07:47:37.316Z,100795.12
2023-01-13T07:50:13.219Z,100797.06
2023-01-13T07:52:47.935Z,100798.41
2023-01-13T07:55:22.141Z,100805.12
2023-01-13T07:57:56.665Z,100796.34
2023-01-13T08:00:31.838Z,100802.22
2023-01-13T08:03:07.073Z,100799.44
2023-01-13T08:05:42.744Z,100809.19
2023-01-13T08:08:17.879Z,100800.63
2023-01-13T08:10:52.374Z,100802.09
2023-01-13T08:13:27.062Z,100802.09
2023-01-13T08:16:03.129Z,100799.44
2023-01-13T08:18:39.348Z,100785.34
2023-01-13T08:21:16.641Z,100798.38
2023-01-13T08:23:51.202Z,100795.25
2023-01-13T08:26:25.451Z,100802.38
2023-01-13T08:28:59.950Z,100804.72
2023-01-13T08:31:34.261Z,100801.78
2023-01-13T08:34:09.390Z,100800.75
2023-01-13T08:36:44.917Z,100813.25
2023-01-13T08:39:19.643Z,100813.28
2023-01-13T08:41:56.883Z,100811.38
2023-01-13T08:44:33.252Z,100799.31
2023-01-13T08:47:07.923Z,100809.53
2023-01-13T08:49:42.605Z,100816.06
2023-01-13T08:52:18.205Z,100822.25
2023-01-13T08:54:53.016Z,100818.62
2023-01-13T08:57:27.257Z,100824.81
2023-01-13T09:00:02.891Z,100827.06
2023-01-13T09:02:39.707Z,100834.25
2023-01-13T09:05:16.887Z,100839.28
2023-01-13T09:07:53.378Z,100840.37
2023-01-13T09:10:27.942Z,100839.56
2023-01-13T09:13:13.605Z,100834.09
2023-01-13T09:15:48.909Z,100839.84
2023-01-13T09:18:23.468Z,100846.47
2023-01-13T09:21:00.206Z,100851.09
2023-01-13T09:23:35.802Z,100841.59
2023-01-13T09:26:11.100Z,100818.16
2023-01-13T09:28:45.410Z,100815.16
2023-01-13T09:31:20.084Z,100811.97
2023-01-13T09:34:12.092Z,100814.75
2023-01-13T09:36:46.715Z,100824.72
2023-01-13T09:39:22.939Z,100812.00
2023-01-13T09:42:20.942Z,100800.81
2023-01-13T09:45:05.070Z,100800.47
2023-01-13T09:47:47.586Z,100797.88
2023-01-13T09:50:27.626Z,100797.16
2023-01-13T09:53:03.014Z,100790.47
2023-01-13T09:55:38.786Z,100786.59
2023-01-13T09:58:16.858Z,100798.66
2023-01-13T10:01:03.852Z,100793.72
2023-01-13T10:03:38.446Z,100796.37
2023-01-13T10:06:16.928Z,100793.59
2023-01-13T10:08:52.316Z,100787.56
2023-01-13T10:11:51.289Z,100789.37
2023-01-13T10:14:29.723Z,100802.31
2023-01-13T10:17:13.432Z,100813.09
2023-01-13T10:19:54.106Z,100806.25
2023-01-13T10:22:55.450Z,100813.06
2023-01-13T10:25:44.447Z,100825.41
2023-01-13T10:28:20.608Z,100819.38
2023-01-13T10:30:55.238Z,100813.00
2023-01-13T10:33:30.066Z,100816.41
2023-01-13T10:36:14.583Z,100813.72
2023-01-13T10:38:51.259Z,100811.78
2023-01-13T10:41:27.354Z,100807.34
2023-01-13T10:44:04.785Z,100796.94
2023-01-13T10:46:54.456Z,100803.53
2023-01-13T10:49:33.828Z,100799.56
2023-01-13T10:52:26.634Z,100804.56
2023-01-13T10:55:01.247Z,100780.75
2023-01-13T10:57:37.866Z,100756.91
2023-01-13T11:00:28.546Z,100760.34
2023-01-13T11:03:19.793Z,100759.75
2023-01-13T11:05:55.779Z,100763.56
2023-01-13T11:08:32.789Z,100750.41
2023-01-13T11:11:27.564Z,100760.16
2023-01-13T11:14:24.222Z,100751.97
2023-01-13T11:17:05.418Z,100748.87
2023-01-13T11:19:43.946Z,100745.59
2023-01-13T11:22:24.677Z,100737.94
2023-01-13T11:25:02.616Z,100744.00
2023-01-13T11:27:43.894Z,100730.78
2023-01-13T11:30:30.883Z,100724.34
2023-01-13T11:33:24.475Z,100721.37
2023-01-13T11:36:07.966Z,100717.12
2023-01-13T11:38:48.846Z,100722.88
2023-01-13T11:41:32.728Z,100719.19
2023-01-13T11:44:17.594Z,100718.25
2023-01-13T11:46:53.976Z,100713.38
2023-01-13T11:49:34.007Z,100710.34
2023-01-13T11:52:20.527Z,100699.41
2023-01-13T11:55:07.147Z,100690.53
2023-01-13T11:58:18.313Z,100698.19
2023-01-13T12:01:08.427Z,100694.53
2023-01-13T12:03:47.629Z,100686.50
2023-01-13T12:06:33.835Z,100681.53
2023-01-13T12:09:23.024Z,100678.50
2023-01-13T12:12:22.961Z,100665.69
2023-01-13T12:15:40.761Z,100651.13
2023-01-13T12:18:48.305Z,100648.38
2023-01-13T12:21:27.082Z,100654.41
2023-01-13T12:24:10.992Z,100640.81
2023-01-13T12:26:51.205Z,100635.56
2023-01-13T12:29:32.744Z,100641.94
2023-01-13T12:32:12.841Z,100637.31
2023-01-13T12:35:01.065Z,100629.47
2023-01-13T12:37:45.170Z,100641.31
2023-01-13T12:40:42.664Z,100628.34
2023-01-13T12:43:36.837Z,100631.16
2023-01-13T12:46:57.187Z,100629.47
2023-01-13T12:49:33.595Z,100627.69
2023-01-13T12:52:18.508Z,100611.03
2023-01-13T12:55:20.586Z,100614.13
2023-01-13T12:58:15.837Z,100617.16
2023-01-13T13:01:07.116Z,100622.41
2023-01-13T13:03:41.963Z,100613.13
2023-01-13T13:06:21.956Z,100608.09
2023-01-13T13:09:04.367Z,100594.94
2023-01-13T13:12:01.267Z,100596.44
2023-01-13T13:15:03.392Z,100600.63
2023-01-13T13:17:46.883Z,100613.87
2023-01-13T13:21:03.956Z,100622.19
2023-01-13T13:23:45.702Z,100613.72
2023-01-13T13:26:46.877Z,100630.53
2023-01-13T13:29:37.518Z,100627.37
2023-01-13T13:32:35.906Z,100635.16
2023-01-13T13:35:27.466Z,100636.34
2023-01-13T13:38:35.105Z,100636.63
2023-01-13T13:41:34.033Z,100632.81
2023-01-13T13:44:33.582Z,100648.66
2023-01-13T13:47:09.589Z,100631.62
2023-01-13T13:49:46.722Z,100639.91
2023-01-13T13:52:27.389Z,100637.25
2023-01-13T13:55:12.057Z,100641.66
2023-01-13T13:57:49.021Z,100654.19
2023-01-13T14:00:28.552Z,100655.22
2023-01-13T14:03:09.152Z,100646.84
2023-01-13T14:05:55.316Z,100651.38
2023-01-13T14:08:32.015Z,100654.53
2023-01-13T14:11:27.289Z,100647.41
2023-01-13T14:14:06.816Z,100646.22
2023-01-13T14:16:41.895Z,100639.91
2023-01-13T14:19:29.377Z,100650.22
2023-01-13T14:22:06.022Z,100651.69
2023-01-13T14:24:47.863Z,100648.16
2023-01-13T14:27:23.934Z,100643.97
2023-01-13T14:30:01.562Z,100649.38
2023-01-13T14:32:38.767Z,100651.06
2023-01-13T14:35:19.101Z,100651.75
2023-01-13T14:38:02.713Z,100644.03
2023-01-13T14:40:47.301Z,100648.81
2023-01-13T14:43:26.796Z,100657.00
2023-01-13T14:46:03.619Z,100658.41
2023-01-13T14:48:39.716Z,100660.50
2023-01-13T14:51:24.328Z,100661.28
2023-01-13T14:53:59.858Z,100659.31
2023-01-13T14:56:43.605Z,100663.16
2023-01-13T14:59:35.558Z,100658.13
2023-01-13T15:03:08.534Z,100655.16
2023-01-13T15:05:48.362Z,100655.16
2023-01-13T15:08:34.593Z,100660.37
2023-01-13T15:11:25.218Z,100663.00
2023-01-13T15:14:01.363Z,100663.84
2023-01-13T15:16:36.957Z,100674.78
2023-01-13T15:19:12.707Z,100665.47
2023-01-13T15:21:48.348Z,100682.50
2023-01-13T15:24:22.567Z,100671.91
2023-01-13T15:26:57.028Z,100676.59
2023-01-13T15:29:31.460Z,100675.19
2023-01-13T15:32:06.659Z,100676.38
2023-01-13T15:34:42.729Z,100678.09
2023-01-13T15:37:19.531Z,100677.03
2023-01-13T15:39:56.175Z,100668.13
2023-01-13T15:42:48.206Z,100673.72
2023-01-13T15:45:40.094Z,100675.25
2023-01-13T15:48:15.046Z,100680.78
2023-01-13T15:50:51.073Z,100677.75
2023-01-13T15:53:26.144Z,100677.69
2023-01-13T15:56:01.778Z,100671.41
2023-01-13T15:58:36.680Z,100674.56
2023-01-13T16:01:12.814Z,100674.63
2023-01-13T16:03:47.519Z,100674.69
2023-01-13T16:06:29.272Z,100661.31
2023-01-13T16:09:04.652Z,100660.66
2023-01-13T16:11:38.865Z,100673.12
2023-01-13T16:14:14.301Z,100673.19
2023-01-13T16:16:48.582Z,100667.91
2023-01-13T16:19:23.121Z,100671.03
2023-01-13T16:21:59.882Z,100671.75
2023-01-13T16:24:34.388Z,100681.13
2023-01-13T16:27:14.930Z,100690.00
2023-01-13T16:29:51.006Z,100687.97
2023-01-13T16:32:25.239Z,100689.94
2023-01-13T16:34:59.869Z,100679.44
2023-01-13T16:37:35.539Z,100686.00
2023-01-13T16:40:22.751Z,100689.59
2023-01-13T16:42:57.929Z,100693.34
2023-01-13T16:45:33.334Z,100695.19
2023-01-13T16:48:07.867Z,100690.28
2023-01-13T16:50:43.795Z,100682.09
2023-01-13T16:53:19.828Z,100686.00
2023-01-13T16:55:54.405Z,100688.72
2023-01-13T16:58:29.248Z,100688.41
2023-01-13T17:01:05.172Z,100679.34
2023-01-13T17:03:39.537Z,100687.63
2023-01-13T17:06:14.198Z,100680.69
2023-01-13T17:08:50.044Z,100681.13
2023-01-13T17:11:24.593Z,100678.25
2023-01-13T17:13:58.956Z,100680.84
2023-01-13T17:16:33.583Z,100672.06
2023-01-13T17:19:08.264Z,100669.22
2023-01-13T17:21:42.827Z,100669.41
2023-01-13T17:24:18.681Z,100678.47
2023-01-13T17:26:53.227Z,100686.31
2023-01-13T17:29:28.073Z,100674.44
2023-01-13T17:32:03.248Z,100669.59
2023-01-13T17:34:40.214Z,100678.47
2023-01-13T17:37:15.334Z,100673.84
2023-01-13T17:39:51.293Z,100683.12
2023-01-13T17:42:28.054Z,100692.84
2023-01-13T17:45:02.354Z,100685.94
2023-01-13T17:47:37.193Z,100694.91
2023-01-13T17:50:12.092Z,100691.81
2023-01-13T17:52:47.668Z,100697.22
2023-01-13T17:55:23.322Z,100692.06
2023-01-13T17:57:57.967Z,100697.53
2023-01-13T18:00:33.849Z,100701.03
2023-01-13T18:03:08.636Z,100709.09
2023-01-13T18:05:44.251Z,100702.56
2023-01-13T18:08:19.633Z,100702.94
2023-01-13T18:10:57.920Z,100709.94
2023-01-13T18:13:34.707Z,100704.53
2023-01-13T18:16:11.097Z,100710.34
2023-01-13T18:18:47.390Z,100721.72
2023-01-13T18:21:41.515Z,100721.41
2023-01-13T18:24:35.448Z,100723.69
2023-01-13T18:27:23.668Z,100734.66
2023-01-13T18:30:01.472Z,100733.09
2023-01-13T18:32:36.203Z,100737.03
2023-01-13T18:35:11.459Z,100732.22
2023-01-13T18:37:46.067Z,100738.16
2023-01-13T18:40:21.727Z,100738.81
2023-01-13T18:42:56.363Z,100743.81
2023-01-13T18:45:32.951Z,100744.16
2023-01-13T18:48:07.848Z,100743.03
2023-01-13T18:50:42.772Z,100746.94
2023-01-13T18:53:17.199Z,100736.38
2023-01-13T18:55:55.416Z,100744.09
2023-01-13T18:58:33.115Z,100753.19
2023-01-13T19:01:10.862Z,100755.19
2023-01-13T19:03:45.240Z,100760.47
2023-01-13T19:06:19.839Z,100762.13
2023-01-13T19:08:55.173Z,100762.03
2023-01-13T19:11:30.689Z,100772.50
2023-01-13T19:14:06.453Z,100768.31
2023-01-13T19:16:41.174Z,100786.69
2023-01-13T19:19:15.451Z,100781.94
2023-01-13T19:21:50.072Z,100780.78
2023-01-13T19:24:26.057Z,100782.78
2023-01-13T19:27:00.745Z,100788.28
2023-01-13T19:29:36.396Z,100789.59
2023-01-13T19:32:12.036Z,100786.09
2023-01-13T19:34:47.968Z,100795.50
2023-01-13T19:37:22.876Z,100806.22
2023-01-13T19:39:59.349Z,100809.41
2023-01-13T19:42:51.941Z,100810.94
2023-01-13T19:45:27.740Z,100829.09
2023-01-13T19:48:05.152Z,100828.47
2023-01-13T19:50:41.458Z,100831.56
2023-01-13T19:53:18.781Z,100827.59
2023-01-13T19:55:53.267Z,100833.37
2023-01-13T19:58:29.186Z,100813.81
2023-01-13T20:01:09.899Z,100826.50
2023-01-13T20:03:46.154Z,100833.56
2023-01-13T20:06:20.472Z,100835.88
2023-01-13T20:08:55.045Z,100832.88
2023-01-13T20:11:33.289Z,100834.09
2023-01-13T20:14:07.825Z,100837.81
2023-01-13T20:16:43.653Z,100837.19
2023-01-13T20:19:18.620Z,100831.28
2023-01-13T20:21:53.313Z,100829.75
2023-01-13T20:24:27.957Z,100812.28
2023-01-13T20:27:02.612Z,100804.09
2023-01-13T20:29:39.012Z,100829.06
2023-01-13T20:32:14.621Z,100846.75
2023-01-13T20:34:49.167Z,100857.37
2023-01-13T20:37:23.909Z,100865.03
2023-01-13T20:40:01.553Z,100858.97
2023-01-13T20:42:44.555Z,100851.03
2023-01-13T20:45:20.980Z,100848.75
2023-01-13T20:47:56.684Z,100857.22
2023-01-13T20:50:33.481Z,100855.66
2023-01-13T20:53:07.788Z,100851.13
2023-01-13T20:55:42.410Z,100837.56
2023-01-13T20:58:16.741Z,100853.50
2023-01-13T21:00:51.358Z,100864.16
2023-01-13T21:03:26.991Z,100877.00
2023-01-13T21:06:01.672Z,100862.97
2023-01-13T21:08:35.957Z,100858.03
2023-01-13T21:11:11.305Z,100868.16
2023-01-13T21:14:03.012Z,100863.47
2023-01-13T21:16:37.625Z,100847.84
2023-01-13T21:19:12.252Z,100833.00
2023-01-13T21:21:46.964Z,100819.47
2023-01-13T21:24:21.208Z,100796.31
2023-01-13T21:26:58.218Z,100768.28
2023-01-13T21:29:32.440Z,100753.19
2023-01-13T21:32:06.987Z,100728.94
2023-01-13T21:34:42.672Z,100744.03
2023-01-13T21:37:18.115Z,100745.91
2023-01-13T21:39:52.911Z,100767.28
2023-01-13T21:42:45.260Z,100769.41
2023-01-13T21:45:37.182Z,100774.88
2023-01-13T21:48:11.817Z,100775.38
2023-01-13T21:50:47.509Z,100778.16
2023-01-13T21:53:22.117Z,100806.19
2023-01-13T21:55:56.367Z,100834.09
2023-01-13T21:58:30.899Z,100862.09
2023-01-13T22:01:05.436Z,100906.09
2023-01-13T22:03:54.847Z,100902.63
2023-01-13T22:06:30.672Z,100874.69
2023-01-13T22:09:05.504Z,100852.78
2023-01-13T22:11:39.980Z,100864.13
2023-01-13T22:14:14.486Z,100867.37
2023-01-13T22:16:50.187Z,100864.00
2023-01-13T22:19:25.134Z,100862.34
2023-01-13T22:22:00.808Z,100850.97
2023-01-13T22:24:35.289Z,100867.81
2023-01-13T22:27:09.473Z,100873.41
2023-01-13T22:29:45.388Z,100867.94
2023-01-13T22:32:20.877Z,100859.53
2023-01-13T22:34:55.622Z,100849.78
2023-01-13T22:37:31.290Z,100852.16
2023-01-13T22:40:10.271Z,100840.34
2023-01-13T22:42:46.659Z,100852.34
2023-01-13T22:45:21.148Z,100860.41
2023-01-13T22:47:55.534Z,100881.88
2023-01-13T22:50:30.277Z,100873.63
2023-01-13T22:53:06.066Z,100878.31
2023-01-13T22:55:40.576Z,100872.69
2023-01-13T22:58:14.814Z,100862.22
2023-01-13T23:03:08.638Z,100885.31
2023-01-13T23:05:45.792Z,100885.31
2023-01-13T23:08:20.064Z,100884.91
2023-01-13T23:11:02.490Z,100877.25
2023-01-13T23:13:38.044Z,100877.56
2023-01-13T23:16:14.443Z,100883.63
2023-01-13T23:18:50.353Z,100886.44
2023-01-13T23:21:27.350Z,100875.72
2023-01-13T23:24:01.705Z,100884.44
2023-01-13T23:26:37.614Z,100884.13
2023-01-13T23:29:14.150Z,100875.06
2023-01-13T23:31:49.024Z,100869.84
2023-01-13T23:34:24.658Z,100860.37
2023-01-13T23:36:59.242Z,100876.38
2023-01-13T23:39:33.615Z,100868.19
2023-01-13T23:42:08.195Z,100881.91
2023-01-13T23:44:42.408Z,100883.03
2023-01-13T23:47:16.969Z,100875.97
2023-01-13T23:49:53.450Z,100865.44
2023-01-13T23:52:28.022Z,100865.56
2023-01-13T23:55:02.592Z,100880.06
2023-01-13T23:57:37.237Z,100869.91
